createdAt,value
2018-07-24T00:02:06.329Z,65.77
2018-07-24T00:04:35.456Z,65.66
2018-07-24T00:07:04.520Z,66.17
2018-07-24T00:09:33.626Z,66.29
2018-07-24T00:12:02.673Z,64.77
2018-07-24T00:14:32.155Z,64.21
2018-07-24T00:17:01.353Z,65.11
2018-07-24T00:19:30.445Z,65.21
2018-07-24T00:21:59.580Z,65.99
2018-07-24T00:24:29.152Z,66.02
2018-07-24T00:26:58.213Z,66.67
2018-07-24T00:29:27.240Z,65.63
2018-07-24T00:31:56.274Z,66.44
2018-07-24T00:34:25.280Z,66.29
2018-07-24T00:36:54.358Z,66.07
2018-07-24T00:39:23.369Z,67.56
2018-07-24T00:41:52.416Z,67.46
2018-07-24T00:44:21.460Z,67.35
2018-07-24T00:46:50.537Z,68.13
2018-07-24T00:49:19.554Z,67.35
2018-07-24T00:51:48.681Z,66.99
2018-07-24T00:54:17.808Z,67.61
2018-07-24T00:56:46.841Z,66.92
2018-07-24T00:59:15.882Z,67.75
2018-07-24T01:01:45.102Z,67.24
2018-07-24T01:04:14.097Z,67.52
2018-07-24T01:06:43.162Z,68.10
2018-07-24T01:09:12.388Z,68.48
2018-07-24T01:11:41.805Z,67.46
2018-07-24T01:14:11.105Z,68.16
2018-07-24T01:16:40.152Z,67.44
2018-07-24T01:19:09.200Z,67.98
2018-07-24T01:21:38.637Z,68.17
2018-07-24T01:24:07.743Z,67.09
2018-07-24T01:26:36.824Z,67.08
2018-07-24T01:29:05.869Z,67.61
2018-07-24T01:31:34.934Z,67.51
2018-07-24T01:34:03.998Z,67.75
2018-07-24T01:36:33.050Z,67.68
2018-07-24T01:39:02.153Z,68.62
2018-07-24T01:41:31.196Z,69.02
2018-07-24T01:44:00.270Z,68.72
2018-07-24T01:46:29.309Z,68.32
2018-07-24T01:48:58.393Z,67.99
2018-07-24T01:51:27.425Z,68.26
2018-07-24T01:53:56.485Z,69.09
2018-07-24T01:56:25.510Z,68.51
2018-07-24T01:58:54.592Z,68.70
2018-07-24T02:01:24.345Z,69.55
2018-07-24T02:03:53.407Z,69.01
2018-07-24T02:06:22.485Z,69.63
2018-07-24T02:08:51.618Z,69.63
2018-07-24T02:11:20.672Z,69.65
2018-07-24T02:13:49.864Z,69.14
2018-07-24T02:16:19.164Z,68.72
2018-07-24T02:18:48.497Z,68.91
2018-07-24T02:21:17.560Z,68.31
2018-07-24T02:23:46.672Z,68.25
2018-07-24T02:26:15.758Z,68.58
2018-07-24T02:28:44.832Z,68.88
2018-07-24T02:33:51.574Z,69.85
2018-07-24T02:36:20.797Z,70.34
2018-07-24T02:38:49.865Z,69.10
2018-07-24T02:41:18.913Z,69.21
2018-07-24T02:43:47.946Z,69.44
2018-07-24T02:46:17.050Z,70.17
2018-07-24T02:48:46.137Z,70.29
2018-07-24T02:51:15.233Z,70.22
2018-07-24T02:53:44.598Z,70.39
2018-07-24T02:56:13.997Z,69.80
2018-07-24T02:58:43.078Z,70.52
2018-07-24T03:01:12.146Z,70.36
2018-07-24T03:03:41.329Z,70.27
2018-07-24T03:06:10.742Z,69.72
2018-07-24T03:08:39.832Z,68.97
2018-07-24T03:11:08.878Z,69.26
2018-07-24T03:13:37.944Z,70.13
2018-07-24T03:16:07.046Z,69.76
2018-07-24T03:18:36.399Z,70.04
2018-07-24T03:21:05.457Z,72.13
2018-07-24T03:23:34.529Z,71.49
2018-07-24T03:26:03.797Z,70.51
2018-07-24T03:28:32.828Z,71.04
2018-07-24T03:31:02.601Z,70.47
2018-07-24T03:33:38.071Z,71.55
2018-07-24T03:36:07.269Z,70.87
2018-07-24T03:38:36.337Z,71.19
2018-07-24T03:41:05.429Z,70.99
2018-07-24T03:43:34.533Z,71.01
2018-07-24T03:46:04.050Z,70.65
2018-07-24T03:48:33.146Z,71.35
2018-07-24T03:51:02.224Z,71.03
2018-07-24T03:53:31.335Z,70.65
2018-07-24T03:56:00.487Z,70.66
2018-07-24T03:58:29.578Z,70.56
2018-07-24T04:00:58.673Z,70.67
2018-07-24T04:03:27.773Z,70.63
2018-07-24T04:05:57.210Z,70.41
2018-07-24T04:08:27.226Z,70.71
2018-07-24T04:10:56.587Z,70.99
2018-07-24T04:13:25.674Z,71.07
2018-07-24T04:15:54.769Z,71.08
2018-07-24T04:18:23.841Z,71.46
2018-07-24T04:20:53.728Z,71.06
2018-07-24T04:23:22.838Z,71.20
2018-07-24T04:25:51.932Z,70.79
2018-07-24T04:28:20.969Z,70.84
2018-07-24T04:30:50.068Z,71.13
2018-07-24T04:33:19.129Z,71.00
2018-07-24T04:35:48.609Z,71.54
2018-07-24T04:38:17.710Z,71.28
2018-07-24T04:40:46.803Z,71.26
2018-07-24T04:43:16.545Z,71.03
2018-07-24T04:45:46.185Z,71.10
2018-07-24T04:48:15.726Z,71.54
2018-07-24T04:50:44.781Z,70.87
2018-07-24T04:53:13.815Z,71.10
2018-07-24T04:55:42.921Z,70.47
2018-07-24T04:58:12.006Z,70.36
2018-07-24T05:00:41.083Z,70.62
2018-07-24T05:03:10.219Z,70.94
2018-07-24T05:05:39.254Z,70.66
2018-07-24T05:08:08.300Z,70.36
2018-07-24T05:10:37.388Z,71.00
2018-07-24T05:13:06.481Z,70.56
2018-07-24T05:15:35.626Z,70.55
2018-07-24T05:18:04.672Z,69.48
2018-07-24T05:20:33.764Z,69.29
2018-07-24T05:23:02.911Z,70.03
2018-07-24T05:25:32.002Z,69.94
2018-07-24T05:28:01.158Z,69.70
2018-07-24T05:30:30.301Z,69.55
2018-07-24T05:32:59.348Z,69.77
2018-07-24T05:35:28.451Z,69.58
2018-07-24T05:37:57.654Z,68.81
2018-07-24T05:40:26.731Z,68.73
2018-07-24T05:42:56.270Z,67.71
2018-07-24T05:45:25.351Z,68.42
2018-07-24T05:47:54.528Z,68.67
2018-07-24T05:50:23.784Z,68.93
2018-07-24T05:52:52.947Z,67.96
2018-07-24T05:55:21.978Z,68.81
2018-07-24T05:57:51.801Z,68.39
2018-07-24T06:00:22.173Z,68.37
2018-07-24T06:02:51.373Z,68.00
2018-07-24T06:05:20.542Z,67.32
2018-07-24T06:07:49.713Z,67.61
2018-07-24T06:10:18.854Z,67.22
2018-07-24T06:12:47.949Z,66.20
2018-07-24T06:15:17.042Z,66.22
2018-07-24T06:17:46.152Z,66.87
2018-07-24T06:20:15.236Z,66.44
2018-07-24T06:25:25.330Z,65.17
2018-07-24T06:27:55.151Z,64.96
2018-07-24T06:30:32.725Z,65.04
2018-07-24T06:33:01.970Z,64.20
2018-07-24T06:35:31.056Z,64.39
2018-07-24T06:38:00.134Z,64.40
2018-07-24T06:40:29.338Z,63.64
2018-07-24T06:43:01.088Z,63.79
2018-07-24T06:45:31.171Z,63.89
2018-07-24T06:48:00.340Z,63.09
2018-07-24T06:50:29.474Z,62.68
2018-07-24T06:52:58.619Z,62.45
2018-07-24T06:55:27.677Z,61.91
2018-07-24T06:57:56.837Z,61.69
2018-07-24T07:00:26.373Z,60.46
2018-07-24T07:03:00.330Z,60.54
2018-07-24T07:05:29.474Z,60.84
2018-07-24T07:07:58.584Z,60.70
2018-07-24T07:10:28.723Z,59.47
2018-07-24T07:12:57.817Z,60.19
2018-07-24T07:15:33.561Z,59.66
2018-07-24T07:18:02.938Z,59.53
2018-07-24T07:20:32.485Z,59.67
2018-07-24T07:23:02.126Z,59.48
2018-07-24T07:25:31.344Z,58.45
2018-07-24T07:28:01.459Z,58.51
2018-07-24T07:30:30.613Z,58.22
2018-07-24T07:32:59.894Z,57.63
2018-07-24T07:35:29.467Z,57.74
2018-07-24T07:37:58.660Z,57.47
2018-07-24T07:40:27.760Z,58.25
2018-07-24T07:42:56.944Z,57.36
2018-07-24T07:45:26.556Z,57.31
2018-07-24T07:47:55.545Z,57.36
2018-07-24T07:50:25.015Z,56.41
2018-07-24T07:52:54.097Z,56.78
2018-07-24T07:55:23.237Z,55.84
2018-07-24T07:57:52.874Z,55.39
2018-07-24T08:00:21.998Z,56.55
2018-07-24T08:02:51.388Z,54.81
2018-07-24T08:05:20.475Z,53.71
2018-07-24T08:07:49.738Z,53.71
2018-07-24T08:10:18.906Z,53.94
2018-07-24T08:12:47.987Z,53.96
2018-07-24T08:15:17.102Z,53.07
2018-07-24T08:17:46.355Z,53.23
2018-07-24T08:20:15.486Z,52.44
2018-07-24T08:22:44.638Z,52.94
2018-07-24T08:25:13.906Z,52.55
2018-07-24T08:27:43.062Z,52.59
2018-07-24T08:30:12.259Z,51.30
2018-07-24T08:32:41.510Z,50.55
2018-07-24T08:35:10.629Z,50.08
2018-07-24T08:37:39.842Z,51.02
2018-07-24T08:40:09.006Z,50.06
2018-07-24T08:42:38.602Z,50.58
2018-07-24T08:45:07.818Z,49.05
2018-07-24T08:47:37.319Z,49.50
2018-07-24T08:50:06.511Z,48.72
2018-07-24T08:52:35.840Z,48.26
2018-07-24T08:55:05.291Z,47.42
2018-07-24T08:57:34.795Z,47.44
2018-07-24T09:00:03.874Z,47.58
2018-07-24T09:02:32.965Z,47.55
2018-07-24T09:05:02.126Z,45.08
2018-07-24T09:07:31.270Z,45.22
2018-07-24T09:10:00.322Z,45.26
2018-07-24T09:12:30.271Z,46.12
2018-07-24T09:14:59.402Z,43.69
2018-07-24T09:17:28.522Z,44.13
2018-07-24T09:19:57.667Z,43.81
2018-07-24T09:22:27.145Z,44.03
2018-07-24T09:24:56.293Z,41.72
2018-07-24T09:27:25.711Z,40.39
2018-07-24T09:29:54.847Z,41.63
2018-07-24T09:32:30.746Z,39.61
2018-07-24T09:34:59.824Z,39.40
2018-07-24T09:37:29.057Z,38.23
2018-07-24T09:39:58.133Z,38.24
2018-07-24T09:42:27.439Z,39.58
2018-07-24T09:44:57.658Z,39.80
2018-07-24T09:47:26.841Z,39.11
2018-07-24T09:49:55.937Z,37.62
2018-07-24T09:52:25.403Z,38.20
2018-07-24T09:54:54.685Z,37.52
2018-07-24T09:57:23.872Z,36.02
2018-07-24T09:59:53.047Z,36.92
2018-07-24T10:02:24.052Z,36.75
2018-07-24T10:04:53.201Z,35.19
2018-07-24T10:07:22.373Z,36.43
2018-07-24T10:09:51.486Z,35.86
2018-07-24T10:12:20.621Z,36.06
2018-07-24T10:14:49.775Z,37.08
2018-07-24T10:17:18.944Z,35.21
2018-07-24T10:19:48.112Z,34.70
2018-07-24T10:22:17.237Z,34.99
2018-07-24T10:24:46.402Z,36.45
2018-07-24T10:27:15.792Z,36.19
2018-07-24T10:29:44.902Z,35.36
2018-07-24T10:32:14.622Z,36.03
2018-07-24T10:34:43.795Z,36.45
2018-07-24T10:37:13.627Z,35.64
2018-07-24T10:39:43.047Z,35.49
2018-07-24T10:42:12.174Z,36.89
2018-07-24T10:44:42.449Z,35.44
2018-07-24T10:47:11.622Z,36.81
2018-07-24T10:49:40.790Z,35.09
2018-07-24T10:52:09.910Z,34.81
2018-07-24T10:54:39.004Z,35.12
2018-07-24T10:57:08.242Z,35.64
2018-07-24T10:59:37.486Z,36.02
2018-07-24T11:02:07.666Z,36.12
2018-07-24T11:04:36.858Z,36.08
2018-07-24T11:07:06.318Z,36.17
2018-07-24T11:09:35.463Z,36.16
2018-07-24T11:12:04.536Z,35.76
2018-07-24T11:14:33.654Z,34.41
2018-07-24T11:17:02.693Z,35.22
2018-07-24T11:19:31.840Z,34.95
2018-07-24T11:22:00.995Z,35.08
2018-07-24T11:24:30.127Z,34.31
2018-07-24T11:26:59.224Z,34.52
2018-07-24T11:29:28.627Z,34.07
2018-07-24T11:31:57.721Z,34.93
2018-07-24T11:34:26.821Z,33.66
2018-07-24T11:36:56.835Z,34.50
2018-07-24T11:39:26.010Z,33.18
2018-07-24T11:41:55.139Z,33.90
2018-07-24T11:44:24.329Z,33.30
2018-07-24T11:46:53.609Z,32.52
2018-07-24T11:49:22.712Z,33.11
2018-07-24T11:51:51.889Z,34.53
2018-07-24T11:54:21.187Z,34.49
2018-07-24T11:56:50.258Z,32.85
2018-07-24T11:59:19.320Z,31.99
2018-07-24T12:01:48.519Z,33.22
2018-07-24T12:04:20.421Z,31.73
2018-07-24T12:06:50.642Z,31.64
2018-07-24T12:09:20.052Z,33.08
2018-07-24T12:11:49.171Z,32.36
2018-07-24T12:14:18.699Z,32.30
2018-07-24T12:16:47.786Z,31.33
2018-07-24T12:19:16.910Z,31.32
2018-07-24T12:21:46.133Z,30.65
2018-07-24T12:24:15.274Z,31.15
2018-07-24T12:26:44.659Z,29.84
2018-07-24T12:29:13.855Z,30.38
2018-07-24T12:31:42.901Z,29.69
2018-07-24T12:34:11.964Z,29.34
2018-07-24T12:36:41.045Z,29.15
2018-07-24T12:39:11.257Z,28.26
2018-07-24T12:41:40.668Z,28.74
2018-07-24T12:44:09.841Z,28.91
2018-07-24T12:46:39.368Z,28.71
2018-07-24T12:49:10.481Z,27.41
2018-07-24T12:51:39.696Z,26.76
2018-07-24T12:54:08.836Z,27.68
2018-07-24T12:56:38.006Z,27.56
2018-07-24T12:59:07.121Z,27.42
2018-07-24T13:01:37.445Z,27.54
2018-07-24T13:04:06.721Z,27.55
2018-07-24T13:06:35.753Z,26.31
2018-07-24T13:09:07.590Z,26.33
2018-07-24T13:11:36.697Z,26.55
2018-07-24T13:14:05.852Z,27.20
2018-07-24T13:16:35.058Z,26.77
2018-07-24T13:19:04.101Z,25.97
2018-07-24T13:21:33.158Z,25.54
2018-07-24T13:24:02.233Z,24.83
2018-07-24T13:26:31.435Z,25.71
2018-07-24T13:29:00.979Z,25.07
2018-07-24T13:31:30.399Z,25.21
2018-07-24T13:33:59.511Z,25.31
2018-07-24T13:36:28.857Z,25.50
2018-07-24T13:38:58.752Z,25.19
2018-07-24T13:41:28.845Z,24.79
2018-07-24T13:43:58.608Z,24.31
2018-07-24T13:46:27.700Z,24.32
2018-07-24T13:48:56.765Z,24.38
2018-07-24T13:51:25.841Z,24.92
2018-07-24T13:53:54.923Z,25.88
2018-07-24T13:56:24.032Z,26.40
2018-07-24T13:58:53.213Z,25.81
2018-07-24T14:01:22.597Z,25.69
2018-07-24T14:03:51.681Z,24.88
2018-07-24T14:06:20.718Z,24.66
2018-07-24T14:08:50.111Z,23.17
2018-07-24T14:11:19.258Z,23.78
2018-07-24T14:13:48.501Z,23.21
2018-07-24T14:16:18.254Z,23.45
2018-07-24T14:18:47.402Z,23.59
2018-07-24T14:21:16.490Z,22.75
2018-07-24T14:23:45.545Z,22.89
2018-07-24T14:26:14.682Z,23.01
2018-07-24T14:28:43.771Z,22.09
2018-07-24T14:31:14.216Z,22.16
2018-07-24T14:33:43.399Z,23.03
2018-07-24T14:36:12.539Z,23.97
2018-07-24T14:38:42.094Z,24.57
2018-07-24T14:41:11.194Z,23.43
2018-07-24T14:43:40.422Z,23.21
2018-07-24T14:46:09.612Z,22.69
2018-07-24T14:48:38.702Z,23.20
2018-07-24T14:51:08.895Z,23.43
2018-07-24T14:53:40.280Z,22.92
2018-07-24T14:56:11.304Z,22.47
2018-07-24T14:58:41.974Z,22.46
2018-07-24T15:01:11.042Z,22.77
2018-07-24T15:03:40.173Z,23.65
2018-07-24T15:06:09.533Z,24.76
2018-07-24T15:08:38.662Z,25.29
2018-07-24T15:11:08.093Z,24.90
2018-07-24T15:13:37.852Z,24.77
2018-07-24T15:16:06.985Z,23.84
2018-07-24T15:18:36.077Z,24.42
2018-07-24T15:21:05.442Z,23.30
2018-07-24T15:23:35.139Z,22.85
2018-07-24T15:26:04.522Z,22.81
2018-07-24T15:28:33.667Z,22.67
2018-07-24T15:31:02.816Z,21.71
2018-07-24T15:33:31.956Z,21.47
2018-07-24T15:36:01.055Z,21.26
2018-07-24T15:38:30.404Z,21.69
2018-07-24T15:40:59.562Z,22.00
2018-07-24T15:43:29.118Z,21.13
2018-07-24T15:45:58.361Z,20.70
2018-07-24T15:48:27.794Z,20.07
2018-07-24T15:50:56.866Z,21.15
2018-07-24T15:53:25.934Z,19.84
2018-07-24T15:55:55.174Z,19.42
2018-07-24T15:58:24.343Z,20.68
2018-07-24T16:00:53.447Z,20.79
2018-07-24T16:03:22.521Z,21.46
2018-07-24T16:05:51.618Z,20.90
2018-07-24T16:08:20.690Z,20.10
2018-07-24T16:10:49.783Z,19.79
2018-07-24T16:13:18.901Z,20.00
2018-07-24T16:15:47.987Z,20.41
2018-07-24T16:18:17.014Z,19.62
2018-07-24T16:20:46.068Z,19.75
2018-07-24T16:23:15.162Z,19.32
2018-07-24T16:25:44.233Z,20.33
2018-07-24T16:28:13.351Z,19.68
2018-07-24T16:30:42.442Z,19.15
2018-07-24T16:33:11.648Z,19.15
2018-07-24T16:35:41.740Z,19.37
2018-07-24T16:38:10.837Z,19.13
2018-07-24T16:40:41.795Z,18.96
2018-07-24T16:43:12.290Z,19.21
2018-07-24T16:45:41.469Z,19.66
2018-07-24T16:48:10.529Z,19.93
2018-07-24T16:50:39.625Z,19.76
2018-07-24T16:53:08.689Z,20.01
2018-07-24T16:55:37.794Z,19.79
2018-07-24T16:58:06.937Z,20.16
2018-07-24T17:00:36.029Z,20.43
2018-07-24T17:03:05.107Z,20.43
2018-07-24T17:05:34.161Z,20.35
2018-07-24T17:08:03.228Z,20.62
2018-07-24T17:10:32.353Z,20.89
2018-07-24T17:13:01.494Z,21.76
2018-07-24T17:15:30.688Z,22.09
2018-07-24T17:17:59.912Z,22.52
2018-07-24T17:20:29.149Z,22.95
2018-07-24T17:22:58.275Z,22.82
2018-07-24T17:25:27.381Z,23.31
2018-07-24T17:27:56.674Z,24.14
2018-07-24T17:30:25.865Z,24.24
2018-07-24T17:32:54.950Z,24.56
2018-07-24T17:35:24.090Z,24.51
2018-07-24T17:37:53.146Z,24.92
2018-07-24T17:40:22.264Z,24.58
2018-07-24T17:42:51.401Z,24.72
2018-07-24T17:45:20.531Z,24.96
2018-07-24T17:47:49.700Z,25.20
2018-07-24T17:50:18.877Z,25.51
2018-07-24T17:52:48.497Z,25.84
2018-07-24T17:55:17.594Z,25.16
2018-07-24T17:57:46.725Z,26.49
2018-07-24T18:00:15.854Z,26.65
2018-07-24T18:02:45.013Z,26.95
2018-07-24T18:05:14.219Z,26.54
2018-07-24T18:07:43.347Z,26.20
2018-07-24T18:10:12.422Z,25.93
2018-07-24T18:12:41.506Z,27.26
2018-07-24T18:15:10.554Z,27.81
2018-07-24T18:17:39.884Z,29.56
2018-07-24T18:20:09.352Z,29.73
2018-07-24T18:22:38.379Z,31.15
2018-07-24T18:25:07.610Z,31.33
2018-07-24T18:27:36.854Z,31.79
2018-07-24T18:30:06.107Z,32.22
2018-07-24T18:32:35.187Z,31.90
2018-07-24T18:35:04.321Z,32.92
2018-07-24T18:37:33.508Z,32.83
2018-07-24T18:40:02.681Z,33.55
2018-07-24T18:42:31.790Z,33.42
2018-07-24T18:45:00.896Z,33.87
2018-07-24T18:47:30.081Z,34.33
2018-07-24T18:49:59.308Z,35.39
2018-07-24T18:52:29.304Z,34.98
2018-07-24T18:54:58.469Z,35.93
2018-07-24T18:57:27.609Z,37.11
2018-07-24T18:59:56.788Z,37.56
2018-07-24T19:02:25.891Z,38.34
2018-07-24T19:04:55.158Z,38.49
2018-07-24T19:07:24.218Z,38.17
2018-07-24T19:09:53.630Z,38.27
2018-07-24T19:12:23.043Z,38.25
2018-07-24T19:14:52.369Z,39.40
2018-07-24T19:17:21.673Z,39.38
2018-07-24T19:19:51.150Z,40.58
2018-07-24T19:22:20.304Z,40.45
2018-07-24T19:24:50.350Z,41.56
2018-07-24T19:27:19.742Z,41.53
2018-07-24T19:29:49.195Z,41.87
2018-07-24T19:32:18.667Z,41.67
2018-07-24T19:34:48.082Z,42.31
2018-07-24T19:37:17.569Z,41.65
2018-07-24T19:39:47.031Z,42.95
2018-07-24T19:42:16.339Z,42.99
2018-07-24T19:44:45.582Z,43.80
2018-07-24T19:47:14.972Z,43.43
2018-07-24T19:49:44.351Z,44.74
2018-07-24T19:52:14.286Z,44.11
2018-07-24T19:54:43.735Z,43.46
2018-07-24T19:57:13.125Z,44.38
2018-07-24T19:59:42.472Z,43.84
2018-07-24T20:02:11.895Z,44.45
2018-07-24T20:04:41.172Z,44.77
2018-07-24T20:07:10.476Z,44.75
2018-07-24T20:09:40.133Z,45.79
2018-07-24T20:12:09.340Z,45.89
2018-07-24T20:14:38.491Z,46.20
2018-07-24T20:17:07.755Z,45.65
2018-07-24T20:19:36.915Z,46.75
2018-07-24T20:22:06.453Z,46.80
2018-07-24T20:24:35.636Z,46.75
2018-07-24T20:27:04.786Z,47.04
2018-07-24T20:29:33.943Z,47.55
2018-07-24T20:32:03.186Z,46.63
2018-07-24T20:34:32.319Z,46.47
2018-07-24T20:37:01.601Z,47.04
2018-07-24T20:39:30.821Z,47.26
2018-07-24T20:41:59.946Z,47.35
2018-07-24T20:44:29.083Z,47.49
2018-07-24T20:46:58.278Z,47.67
2018-07-24T20:49:27.490Z,47.96
2018-07-24T20:51:56.707Z,48.26
2018-07-24T20:54:25.799Z,48.13
2018-07-24T20:56:54.932Z,47.92
2018-07-24T20:59:24.036Z,47.69
2018-07-24T21:01:53.490Z,48.15
2018-07-24T21:04:22.699Z,48.17
2018-07-24T21:06:51.807Z,50.03
2018-07-24T21:09:20.993Z,49.69
2018-07-24T21:11:50.065Z,48.98
2018-07-24T21:14:19.457Z,49.01
2018-07-24T21:16:48.738Z,49.79
2018-07-24T21:19:17.843Z,50.15
2018-07-24T21:21:47.118Z,49.19
2018-07-24T21:24:16.204Z,49.40
2018-07-24T21:26:45.331Z,50.06
2018-07-24T21:29:14.405Z,51.10
2018-07-24T21:31:43.521Z,50.91
2018-07-24T21:34:12.593Z,50.33
2018-07-24T21:36:41.754Z,50.86
2018-07-24T21:39:11.797Z,51.15
2018-07-24T21:41:40.958Z,50.37
2018-07-24T21:44:10.045Z,50.27
2018-07-24T21:46:39.165Z,50.86
2018-07-24T21:49:08.258Z,50.96
2018-07-24T21:51:37.365Z,51.86
2018-07-24T21:54:06.452Z,51.71
2018-07-24T21:56:35.568Z,52.45
2018-07-24T21:59:04.618Z,52.43
2018-07-24T22:01:34.237Z,52.60
2018-07-24T22:04:03.645Z,52.47
2018-07-24T22:06:32.767Z,52.07
2018-07-24T22:09:01.940Z,51.96
2018-07-24T22:11:30.918Z,53.17
2018-07-24T22:13:59.962Z,52.87
2018-07-24T22:16:29.045Z,52.96
2018-07-24T22:18:58.121Z,52.96
2018-07-24T22:21:27.201Z,51.92
2018-07-24T22:23:56.332Z,52.31
2018-07-24T22:26:25.407Z,52.46
2018-07-24T22:28:54.534Z,52.13
2018-07-24T22:31:23.778Z,52.69
2018-07-24T22:33:52.854Z,52.55
2018-07-24T22:36:21.962Z,53.78
2018-07-24T22:38:51.050Z,52.69
2018-07-24T22:41:20.125Z,52.29
2018-07-24T22:43:49.262Z,53.03
2018-07-24T22:46:18.569Z,52.68
2018-07-24T23:07:55.266Z,57.70
2018-07-24T23:10:29.645Z,57.23
2018-07-24T23:12:58.818Z,57.02
2018-07-24T23:15:27.952Z,56.16
2018-07-24T23:17:57.007Z,56.84
2018-07-24T23:20:26.740Z,55.95
2018-07-24T23:22:55.842Z,56.67
2018-07-24T23:25:25.325Z,55.23
2018-07-24T23:27:55.038Z,55.27
2018-07-24T23:30:24.186Z,55.32
2018-07-24T23:32:53.254Z,55.81
2018-07-24T23:35:22.353Z,56.86
2018-07-24T23:37:51.525Z,56.49
2018-07-24T23:40:20.719Z,56.70
2018-07-24T23:42:51.166Z,56.96
2018-07-24T23:45:20.238Z,56.26
2018-07-24T23:47:49.304Z,56.89
2018-07-24T23:50:18.525Z,57.22
2018-07-24T23:52:47.634Z,57.62
2018-07-24T23:55:16.745Z,57.15
2018-07-24T23:57:45.972Z,56.75
